Time;durP1;ratioP1;P1;durP2;ratioP2;P2;SDS_P1;SDS_P2;PMS_P1;PMS_P2;Temp;Humidity;BMP_temperature;BMP_pressure;BME280_temperature;BME280_humidity;BME280_pressure;Samples;Min_cycle;Max_cycle;Signal;HPM_P1;HPM_P2
2021/06/28 00:01:45;;;;;;;9.57;7.60;;;;;;;20.23;81.36;100229.09;20651196;28;20047;-72
2021/06/28 00:11:47;;;;;;;11.23;7.88;;;;;;;20.21;81.53;100234.50;20578266;28;20043;-72
2021/06/28 00:21:48;;;;;;;11.18;7.68;;;;;;;20.25;81.96;100241.34;20578227;28;20058;-72
2021/06/28 00:31:55;;;;;;;12.65;8.25;;;;;;;20.27;82.60;100245.75;20576937;28;20113;-72
2021/06/28 00:41:57;;;;;;;10.68;7.70;;;;;;;20.15;82.77;100237.53;20577561;28;20130;-71
2021/06/28 00:51:59;;;;;;;10.90;8.20;;;;;;;20.11;83.09;100235.13;20576689;28;20109;-72
2021/06/28 01:02:02;;;;;;;11.43;7.95;;;;;;;20.05;83.34;100236.34;20575409;28;20542;-72
2021/06/28 01:12:05;;;;;;;11.85;8.45;;;;;;;20.05;83.25;100225.72;20589189;28;20047;-71
2021/06/28 01:22:08;;;;;;;13.18;9.20;;;;;;;20.02;83.31;100231.19;20581971;28;20058;-71
2021/06/28 01:32:09;;;;;;;10.27;7.90;;;;;;;19.91;82.97;100225.66;20589232;28;20058;-72
2021/06/28 01:42:11;;;;;;;11.98;8.48;;;;;;;19.89;82.71;100214.25;20589144;28;20050;-72
2021/06/28 01:52:14;;;;;;;11.45;8.60;;;;;;;19.82;82.93;100221.69;20587830;28;20050;-72
2021/06/28 02:02:16;;;;;;;11.57;7.68;;;;;;;19.85;82.69;100220.69;20587244;28;20117;-72
2021/06/28 02:12:17;;;;;;;13.40;8.45;;;;;;;19.83;81.80;100214.59;20587060;28;20046;-71
2021/06/28 02:22:19;;;;;;;8.45;6.45;;;;;;;19.84;81.81;100218.97;20585602;28;20059;-72
2021/06/28 02:32:21;;;;;;;8.57;6.80;;;;;;;19.82;81.43;100197.78;20584990;28;20469;-72
2021/06/28 02:42:23;;;;;;;10.85;6.88;;;;;;;19.90;80.96;100184.06;20584104;28;20043;-72
2021/06/28 02:52:24;;;;;;;8.43;6.88;;;;;;;19.89;81.15;100185.03;20583263;28;20417;-72
2021/06/28 03:02:26;;;;;;;8.90;7.38;;;;;;;19.70;81.91;100195.84;20583085;28;20502;-72
2021/06/28 03:12:28;;;;;;;8.93;6.93;;;;;;;19.65;82.22;100179.31;20582760;28;20051;-72
2021/06/28 03:22:30;;;;;;;9.30;7.25;;;;;;;19.68;82.44;100179.97;20581186;28;20053;-71
2021/06/28 03:32:32;;;;;;;9.07;6.90;;;;;;;19.65;82.24;100150.97;20579754;28;20046;-72
2021/06/28 03:42:37;;;;;;;9.63;7.00;;;;;;;19.63;82.00;100144.00;20580264;28;20047;-72
2021/06/28 03:52:39;;;;;;;9.07;7.25;;;;;;;19.69;82.26;100151.63;20579417;28;20086;-72
2021/06/28 04:02:43;;;;;;;9.85;7.38;;;;;;;19.66;82.37;100155.31;20578309;28;20053;-72
2021/06/28 04:12:47;;;;;;;10.30;8.13;;;;;;;19.69;82.06;100160.47;20578512;28;20769;-72
2021/06/28 04:22:50;;;;;;;12.55;8.38;;;;;;;19.65;82.55;100177.50;20578492;28;20417;-73
2021/06/28 04:32:52;;;;;;;10.82;7.32;;;;;;;19.65;82.63;100193.44;20577846;28;20563;-72
2021/06/28 04:42:55;;;;;;;10.30;6.88;;;;;;;19.82;81.75;100181.84;20587097;28;20425;-72
2021/06/28 04:52:57;;;;;;;9.07;6.57;;;;;;;19.99;80.90;100189.72;20593154;28;20066;-72
2021/06/28 05:02:59;;;;;;;8.05;5.70;;;;;;;20.09;79.93;100195.34;20591786;28;20203;-71
2021/06/28 05:13:00;;;;;;;7.80;5.93;;;;;;;20.59;77.01;100204.81;20586594;28;20050;-70
2021/06/28 05:23:02;;;;;;;7.97;5.45;;;;;;;20.99;74.28;100218.38;20591695;28;20138;-69
2021/06/28 05:33:04;;;;;;;7.18;4.88;;;;;;;21.44;73.27;100205.78;20589160;28;20055;-69
2021/06/28 05:43:06;;;;;;;6.13;3.90;;;;;;;21.58;71.32;100200.44;20588113;28;20043;-69
2021/06/28 05:53:08;;;;;;;5.30;3.88;;;;;;;21.67;71.84;100210.50;20586880;28;20093;-68
2021/06/28 06:03:10;;;;;;;7.28;4.25;;;;;;;21.81;71.51;100204.28;20586930;28;20042;-69
2021/06/28 06:13:12;;;;;;;8.15;4.38;;;;;;;22.10;70.67;100199.69;20586836;28;20081;-69
2021/06/28 06:23:14;;;;;;;5.78;3.80;;;;;;;22.65;68.01;100230.66;20584857;28;20059;-69
2021/06/28 06:33:16;;;;;;;7.32;3.28;;;;;;;22.33;68.17;100229.34;20586658;28;20105;-69
2021/06/28 06:43:19;;;;;;;6.10;3.05;;;;;;;22.78;66.30;100226.19;20583955;28;20055;-69
2021/06/28 06:53:21;;;;;;;5.47;2.67;;;;;;;23.03;65.20;100219.16;20582506;28;20106;-70
2021/06/28 07:03:22;;;;;;;4.55;2.50;;;;;;;23.16;64.89;100219.16;20573343;28;20039;-70
2021/06/28 07:13:24;;;;;;;4.25;2.75;;;;;;;23.33;63.83;100248.16;20581877;28;20055;-69
2021/06/28 07:23:26;;;;;;;4.53;3.10;;;;;;;23.26;64.18;100274.47;20534527;28;20051;-70
2021/06/28 07:33:29;;;;;;;4.95;3.13;;;;;;;23.35;65.40;100253.44;20501048;28;20110;-69
2021/06/28 07:43:32;;;;;;;4.43;2.70;;;;;;;23.55;64.89;100255.53;20556604;28;20473;-69
2021/06/28 07:53:34;;;;;;;5.38;3.35;;;;;;;23.71;63.06;100242.75;20529815;28;20059;-69
2021/06/28 08:03:36;;;;;;;4.78;2.97;;;;;;;24.60;62.18;100272.78;20498237;28;20047;-69
2021/06/28 08:13:45;;;;;;;4.75;2.50;;;;;;;25.42;58.48;100292.31;20504050;28;20118;-69
2021/06/28 08:23:47;;;;;;;5.93;3.15;;;;;;;25.46;57.72;100301.81;20588317;28;20050;-69
2021/06/28 08:33:49;;;;;;;7.28;3.53;;;;;;;25.31;56.99;100290.50;20604126;28;20047;-70
2021/06/28 08:43:52;;;;;;;7.43;2.97;;;;;;;25.25;59.04;100294.50;20604477;28;20046;-68
2021/06/28 08:53:55;;;;;;;5.10;3.00;;;;;;;25.50;56.52;100295.25;20604230;28;20490;-68
2021/06/28 09:03:57;;;;;;;8.10;3.10;;;;;;;25.31;56.24;100269.91;20602028;28;20459;-67
2021/06/28 09:14:03;;;;;;;4.00;2.63;;;;;;;25.07;55.68;100227.13;20603566;28;20042;-68
2021/06/28 09:24:27;;;;;;;5.45;3.03;;;;;;;26.01;55.25;100195.44;20600959;28;20047;-68
2021/06/28 09:34:32;;;;;;;6.15;2.72;;;;;;;26.61;54.98;100204.69;20589370;28;20047;-69
2021/06/28 09:44:58;;;;;;;6.20;3.30;;;;;;;26.88;51.44;100208.63;20589424;28;20054;-69
2021/06/28 09:55:12;;;;;;;4.68;3.10;;;;;;;27.21;53.45;100226.38;20590853;28;20046;-69
2021/06/28 10:05:20;;;;;;;5.97;3.20;;;;;;;27.31;51.21;100228.13;20586734;28;20592;-69
2021/06/28 10:15:24;;;;;;;5.45;3.15;;;;;;;27.35;51.53;100215.25;20588202;28;20560;-69
2021/06/28 10:25:27;;;;;;;4.78;3.00;;;;;;;27.27;51.01;100210.56;20585784;28;20105;-69
2021/06/28 10:35:33;;;;;;;5.22;3.17;;;;;;;27.48;51.81;100206.94;20585668;28;20038;-69
2021/06/28 10:45:38;;;;;;;4.28;2.97;;;;;;;27.32;51.04;100207.47;20584259;28;20504;-69
2021/06/28 10:55:40;;;;;;;3.92;2.75;;;;;;;27.40;49.07;100187.94;20582841;28;20486;-69
2021/06/28 11:06:15;;;;;;;4.60;2.58;;;;;;;27.31;47.63;100182.44;20582650;28;20490;-69
2021/06/28 11:16:32;;;;;;;7.53;2.80;;;;;;;27.27;47.99;100186.38;20581555;28;20054;-69
2021/06/28 11:26:35;;;;;;;5.40;2.30;;;;;;;28.17;47.50;100171.94;20582287;28;20134;-70
2021/06/28 11:36:40;;;;;;;3.80;2.50;;;;;;;27.98;46.54;100164.72;20580206;28;20183;-69
2021/06/28 11:46:41;;;;;;;5.53;2.33;;;;;;;27.44;48.22;100162.50;20579760;28;20047;-69
2021/06/28 11:56:46;;;;;;;3.83;2.50;;;;;;;27.39;44.86;100159.38;20579188;28;20101;-69
2021/06/28 12:06:50;;;;;;;4.97;2.55;;;;;;;27.48;44.78;100151.31;20578584;28;20433;-70
2021/06/28 12:16:51;;;;;;;5.28;2.70;;;;;;;27.93;43.47;100147.28;20578167;28;20059;-69
2021/06/28 12:27:05;;;;;;;4.18;2.63;;;;;;;28.12;44.72;100149.97;20509274;28;20078;-68
2021/06/28 12:37:07;;;;;;;3.95;2.45;;;;;;;28.47;42.84;100144.00;20496388;29;20054;-70
2021/06/28 12:47:11;;;;;;;5.05;2.70;;;;;;;28.36;41.58;100136.94;20497372;29;20051;-69
2021/06/28 12:57:24;;;;;;;3.47;2.40;;;;;;;28.80;42.46;100142.63;20565467;28;20409;-69
2021/06/28 13:07:26;;;;;;;4.67;2.73;;;;;;;29.31;42.39;100138.56;20591020;28;20047;-69
2021/06/28 13:17:29;;;;;;;5.00;2.60;;;;;;;29.53;42.66;100139.16;20550543;28;20050;-70
2021/06/28 13:27:34;;;;;;;4.40;2.65;;;;;;;29.22;42.19;100128.69;20590243;28;20053;-69
2021/06/28 13:37:38;;;;;;;4.40;2.90;;;;;;;29.37;42.88;100124.50;20588737;28;20105;-70
2021/06/28 13:48:00;;;;;;;6.88;3.70;;;;;;;29.40;44.06;100129.56;20587278;28;20051;-69
2021/06/28 13:58:05;;;;;;;5.38;3.85;;;;;;;29.44;45.14;100129.25;20586894;28;20083;-69
2021/06/28 14:08:08;;;;;;;10.10;3.78;;;;;;;29.13;43.61;100116.13;20587449;28;20406;-69
2021/06/28 14:18:19;;;;;;;4.88;2.75;;;;;;;29.08;42.03;100108.47;20584683;28;20465;-70
2021/06/28 14:28:21;;;;;;;4.40;2.42;;;;;;;29.00;40.83;100088.66;20585761;28;20055;-69
2021/06/28 14:38:23;;;;;;;4.88;2.35;;;;;;;29.42;41.20;100090.78;20585370;28;20563;-69
2021/06/28 14:48:44;;;;;;;4.13;2.53;;;;;;;29.46;42.71;100086.78;20583867;28;20323;-70
2021/06/28 14:58:46;;;;;;;3.50;2.10;;;;;;;29.19;39.84;100076.91;20584587;28;20054;-68
2021/06/28 15:08:47;;;;;;;6.85;2.67;;;;;;;29.40;41.07;100058.59;20581253;28;20043;-68
2021/06/28 15:18:49;;;;;;;3.45;2.40;;;;;;;30.35;39.97;100046.22;20606706;28;20046;-69
2021/06/28 15:28:50;;;;;;;5.22;3.03;;;;;;;29.69;42.17;100052.97;20660037;28;20109;-68
2021/06/28 15:38:52;;;;;;;4.30;2.63;;;;;;;29.02;43.70;100054.31;20660664;28;20368;-68
2021/06/28 15:48:55;;;;;;;5.57;3.15;;;;;;;28.76;45.28;100060.38;20659600;28;20118;-68
2021/06/28 15:58:57;;;;;;;5.45;2.80;;;;;;;29.12;44.34;100044.31;20659059;28;20097;-68
2021/06/28 16:08:58;;;;;;;5.60;3.28;;;;;;;29.80;43.52;100022.19;20658275;28;20476;-70
2021/06/28 16:19:03;;;;;;;7.05;4.22;;;;;;;29.26;44.56;100008.72;20652174;28;20058;-68
2021/06/28 16:29:06;;;;;;;4.20;2.35;;;;;;;28.96;46.20;100015.34;20580271;28;20049;-69
2021/06/28 16:39:07;;;;;;;6.10;2.95;;;;;;;28.83;46.08;100020.19;20587259;28;20047;-69
2021/06/28 16:49:09;;;;;;;4.15;2.33;;;;;;;28.40;47.57;100031.59;20593644;28;20054;-68
2021/06/28 16:59:11;;;;;;;6.00;2.83;;;;;;;27.74;49.52;100036.00;20592308;28;20394;-69
2021/06/28 17:09:12;;;;;;;3.42;2.30;;;;;;;27.58;49.11;100068.81;20591106;28;20043;-69
2021/06/28 17:19:14;;;;;;;3.95;1.85;;;;;;;27.12;47.03;100074.84;20617393;28;20053;-69
2021/06/28 17:29:16;;;;;;;4.30;1.85;;;;;;;26.90;46.26;100083.94;20668454;28;20042;-69
2021/06/28 17:39:20;;;;;;;3.27;1.70;;;;;;;26.68;46.16;100102.94;20614125;28;20491;-70
2021/06/28 17:49:21;;;;;;;5.03;1.60;;;;;;;26.30;44.99;100097.22;20597441;28;20055;-70
2021/06/28 17:59:24;;;;;;;2.47;1.23;;;;;;;25.93;42.85;100099.50;20588490;28;20541;-70
2021/06/28 18:09:25;;;;;;;3.75;1.30;;;;;;;25.60;46.44;100087.06;20587638;28;20053;-70
2021/06/28 18:19:29;;;;;;;3.78;1.40;;;;;;;25.12;46.00;100087.44;20586378;28;20419;-70
2021/06/28 18:29:30;;;;;;;2.67;1.30;;;;;;;25.11;44.90;100090.28;20582707;28;20480;-69
2021/06/28 18:39:32;;;;;;;2.58;1.42;;;;;;;25.22;44.82;100109.00;20636314;28;20046;-69
2021/06/28 18:49:33;;;;;;;3.58;1.65;;;;;;;25.05;45.10;100167.41;20599349;28;20050;-69
2021/06/28 18:59:37;;;;;;;4.15;1.60;;;;;;;25.03;44.58;100192.63;20663073;28;20046;-69
2021/06/28 19:09:38;;;;;;;2.30;1.40;;;;;;;24.82;45.65;100228.19;20661734;28;20464;-69
2021/06/28 19:19:41;;;;;;;4.95;2.40;;;;;;;24.77;47.05;100269.69;20648910;28;20105;-69
2021/06/28 19:29:42;;;;;;;2.40;1.45;;;;;;;24.58;47.65;100288.97;20661020;28;20100;-70
2021/06/28 19:39:44;;;;;;;3.22;1.60;;;;;;;24.44;48.37;100289.16;20629749;28;20046;-69
2021/06/28 19:49:45;;;;;;;2.42;1.50;;;;;;;24.31;48.28;100306.09;20661759;28;20050;-69
2021/06/28 19:59:47;;;;;;;5.78;1.60;;;;;;;24.14;54.39;100316.34;20658624;28;20054;-69
2021/06/28 20:09:49;;;;;;;4.55;2.08;;;;;;;23.70;59.46;100321.28;20656828;28;20112;-69
2021/06/28 20:19:51;;;;;;;4.03;2.10;;;;;;;23.29;62.39;100333.06;20658291;28;20481;-69
2021/06/28 20:29:52;;;;;;;4.35;2.17;;;;;;;22.92;65.89;100315.19;20657701;28;20140;-68
2021/06/28 20:39:54;;;;;;;7.55;2.90;;;;;;;22.62;69.89;100334.97;20657350;28;20043;-68
2021/06/28 20:49:56;;;;;;;8.63;3.40;;;;;;;22.22;73.46;100352.72;20658613;28;20059;-70
2021/06/28 20:59:58;;;;;;;6.47;3.42;;;;;;;22.07;75.34;100359.88;20656988;28;20042;-68
2021/06/28 21:10:00;;;;;;;6.10;3.45;;;;;;;;;;20655640;28;20397;-68
2021/06/28 21:20:02;;;;;;;8.35;3.95;;;;;;;21.73;76.58;100342.50;20658062;28;20054;-68
2021/06/28 21:30:16;;;;;;;5.73;3.50;;;;;;;21.55;76.25;100323.19;20670487;28;20054;-68
2021/06/28 21:40:18;;;;;;;9.80;3.38;;;;;;;21.27;76.48;100338.19;20670625;28;20054;-68
2021/06/28 21:50:20;;;;;;;5.75;3.55;;;;;;;21.31;75.55;100314.91;20669702;28;20045;-68
2021/06/28 22:00:22;;;;;;;6.82;4.13;;;;;;;21.13;76.51;100294.72;20668646;28;20054;-68
2021/06/28 22:10:28;;;;;;;7.75;4.32;;;;;;;21.05;77.76;100284.53;20660751;28;20061;-68
2021/06/28 22:20:33;;;;;;;6.43;3.80;;;;;;;20.97;76.67;100260.16;20667075;28;20409;-67
2021/06/28 22:30:35;;;;;;;6.53;3.92;;;;;;;20.54;79.37;100174.13;20665319;28;20071;-68
2021/06/28 22:40:37;;;;;;;9.52;4.28;;;;;;;20.43;80.95;100148.16;20664704;28;20077;-68
2021/06/28 22:50:39;;;;;;;9.75;4.30;;;;;;;20.38;81.27;100118.31;20663387;28;20424;-67
2021/06/28 23:00:40;;;;;;;8.63;4.35;;;;;;;20.29;81.45;100122.38;20662648;28;20050;-67
2021/06/28 23:10:42;;;;;;;7.32;4.43;;;;;;;20.36;80.19;100194.66;20664523;28;20054;-68
2021/06/28 23:20:45;;;;;;;8.32;4.43;;;;;;;20.12;81.94;100258.97;20662347;28;20401;-68
2021/06/28 23:30:47;;;;;;;7.40;4.47;;;;;;;19.87;81.63;100274.59;20580085;28;20330;-68
2021/06/28 23:40:51;;;;;;;7.88;4.43;;;;;;;19.66;81.01;100255.41;20580231;28;20050;-68
2021/06/28 23:50:52;;;;;;;8.80;4.50;;;;;;;19.69;80.77;100250.78;20599791;28;20050;-68
